sensor_id;sensor_type;location;lat;lon;timestamp;pressure;altitude;pressure_sealevel;temperature;humidity
77062;BME280;65989;51.686;5.138;2023-03-24T00:01:49;99925.91;;;10.67;92.54
77062;BME280;65989;51.686;5.138;2023-03-24T00:04:15;99904.47;;;10.68;92.61
77062;BME280;65989;51.686;5.138;2023-03-24T00:06:41;99899.72;;;10.65;92.67
77062;BME280;65989;51.686;5.138;2023-03-24T00:09:08;99898.38;;;10.63;92.81
77062;BME280;65989;51.686;5.138;2023-03-24T00:11:33;99899.41;;;10.67;92.86
77062;BME280;65989;51.686;5.138;2023-03-24T00:14:00;99898.34;;;10.68;92.90
77062;BME280;65989;51.686;5.138;2023-03-24T00:16:27;99902.88;;;10.67;92.82
77062;BME280;65989;51.686;5.138;2023-03-24T00:18:52;99889.63;;;10.67;93.25
77062;BME280;65989;51.686;5.138;2023-03-24T00:21:19;99898.34;;;10.68;93.08
77062;BME280;65989;51.686;5.138;2023-03-24T00:23:52;99887.25;;;10.66;93.17
77062;BME280;65989;51.686;5.138;2023-03-24T00:26:20;99889.06;;;10.70;93.16
77062;BME280;65989;51.686;5.138;2023-03-24T00:28:47;99884.56;;;10.71;93.28
77062;BME280;65989;51.686;5.138;2023-03-24T00:31:14;99880.06;;;10.71;93.33
77062;BME280;65989;51.686;5.138;2023-03-24T00:33:41;99874.75;;;10.71;93.20
77062;BME280;65989;51.686;5.138;2023-03-24T00:36:09;99877.13;;;10.73;93.32
77062;BME280;65989;51.686;5.138;2023-03-24T00:38:39;99872.63;;;10.73;93.15
77062;BME280;65989;51.686;5.138;2023-03-24T00:41:09;99867.06;;;10.70;93.18
77062;BME280;65989;51.686;5.138;2023-03-24T00:43:37;99860.19;;;10.69;93.49
77062;BME280;65989;51.686;5.138;2023-03-24T00:46:08;99856.75;;;10.68;93.38
77062;BME280;65989;51.686;5.138;2023-03-24T00:48:36;99841.09;;;10.72;93.36
77062;BME280;65989;51.686;5.138;2023-03-24T00:51:03;99842.69;;;10.73;93.49
77062;BME280;65989;51.686;5.138;2023-03-24T00:53:29;99841.59;;;10.74;93.49
77062;BME280;65989;51.686;5.138;2023-03-24T00:55:55;99831.81;;;10.74;93.44
77062;BME280;65989;51.686;5.138;2023-03-24T00:58:21;99828.34;;;10.74;93.38
77062;BME280;65989;51.686;5.138;2023-03-24T01:00:51;99830.44;;;10.77;93.36
77062;BME280;65989;51.686;5.138;2023-03-24T01:03:18;99828.34;;;10.74;93.26
77062;BME280;65989;51.686;5.138;2023-03-24T01:05:46;99816.13;;;10.78;93.41
77062;BME280;65989;51.686;5.138;2023-03-24T01:08:14;99820.88;;;10.81;93.08
77062;BME280;65989;51.686;5.138;2023-03-24T01:10:40;99820.06;;;10.81;93.53
77062;BME280;65989;51.686;5.138;2023-03-24T01:13:16;99812.88;;;10.86;93.43
77062;BME280;65989;51.686;5.138;2023-03-24T01:15:42;99816.34;;;10.82;93.57
77062;BME280;65989;51.686;5.138;2023-03-24T01:18:09;99813.44;;;10.83;93.39
77062;BME280;65989;51.686;5.138;2023-03-24T01:20:37;99814.47;;;10.87;93.51
77062;BME280;65989;51.686;5.138;2023-03-24T01:23:06;99809.38;;;10.91;93.64
77062;BME280;65989;51.686;5.138;2023-03-24T01:25:32;99816.03;;;10.88;93.53
77062;BME280;65989;51.686;5.138;2023-03-24T01:28:00;99819.22;;;10.90;93.59
77062;BME280;65989;51.686;5.138;2023-03-24T01:30:27;99810.97;;;10.92;93.59
77062;BME280;65989;51.686;5.138;2023-03-24T01:32:53;99807.53;;;10.92;93.82
77062;BME280;65989;51.686;5.138;2023-03-24T01:35:19;99801.66;;;10.95;93.66
77062;BME280;65989;51.686;5.138;2023-03-24T01:37:45;99801.66;;;10.95;93.62
77062;BME280;65989;51.686;5.138;2023-03-24T01:40:37;99801.66;;;10.95;93.59
77062;BME280;65989;51.686;5.138;2023-03-24T01:43:03;99788.41;;;10.95;93.75
77062;BME280;65989;51.686;5.138;2023-03-24T01:48:08;99788.41;;;10.95;93.77
77062;BME280;65989;51.686;5.138;2023-03-24T01:50:35;99784.94;;;10.99;93.65
77062;BME280;65989;51.686;5.138;2023-03-24T01:53:01;99782.84;;;10.96;93.72
77062;BME280;65989;51.686;5.138;2023-03-24T01:55:28;99790.50;;;10.98;93.78
77062;BME280;65989;51.686;5.138;2023-03-24T01:57:56;99783.59;;;10.97;94.07
77062;BME280;65989;51.686;5.138;2023-03-24T02:00:23;99783.59;;;10.97;93.97
77062;BME280;65989;51.686;5.138;2023-03-24T02:02:55;99785.47;;;10.96;94.00
77062;BME280;65989;51.686;5.138;2023-03-24T02:05:25;99790.78;;;10.96;94.04
77062;BME280;65989;51.686;5.138;2023-03-24T02:08:19;99785.25;;;10.93;94.08
77062;BME280;65989;51.686;5.138;2023-03-24T02:10:46;99783.59;;;10.97;93.99
77062;BME280;65989;51.686;5.138;2023-03-24T02:13:13;99776.72;;;10.96;94.05
77062;BME280;65989;51.686;5.138;2023-03-24T02:15:59;99787.31;;;10.96;94.04
77062;BME280;65989;51.686;5.138;2023-03-24T02:21:45;99789.47;;;10.94;94.15
77062;BME280;65989;51.686;5.138;2023-03-24T02:40:19;99882.09;;;10.45;93.78
77062;BME280;65989;51.686;5.138;2023-03-24T02:47:00;99876.69;;;10.15;93.46
77062;BME280;65989;51.686;5.138;2023-03-24T02:49:09;99879.94;;;10.07;93.64
77062;BME280;65989;51.686;5.138;2023-03-24T02:52:02;99889.47;;;10.03;93.45
77062;BME280;65989;51.686;5.138;2023-03-24T03:02:30;99902.88;;;9.62;92.80
77062;BME280;65989;51.686;5.138;2023-03-24T03:05:06;99915.88;;;9.48;92.55
77062;BME280;65989;51.686;5.138;2023-03-24T03:07:38;99914.81;;;9.38;92.47
77062;BME280;65989;51.686;5.138;2023-03-24T03:12:36;99926.75;;;9.25;91.94
77062;BME280;65989;51.686;5.138;2023-03-24T03:15:08;99935.72;;;9.19;92.12
77062;BME280;65989;51.686;5.138;2023-03-24T03:17:42;99938.66;;;9.13;92.08
77062;BME280;65989;51.686;5.138;2023-03-24T03:20:15;99945.78;;;9.17;91.76
77062;BME280;65989;51.686;5.138;2023-03-24T03:22:47;99945.25;;;9.10;91.85
77062;BME280;65989;51.686;5.138;2023-03-24T03:25:15;99950.28;;;9.06;91.61
77062;BME280;65989;51.686;5.138;2023-03-24T03:27:46;99961.38;;;9.03;91.84
77062;BME280;65989;51.686;5.138;2023-03-24T03:30:20;99965.59;;;9.04;92.04
77062;BME280;65989;51.686;5.138;2023-03-24T03:33:11;99970.88;;;9.04;91.98
77062;BME280;65989;51.686;5.138;2023-03-24T03:35:42;99971.69;;;9.05;92.06
77062;BME280;65989;51.686;5.138;2023-03-24T03:38:17;99971.69;;;9.00;91.88
77062;BME280;65989;51.686;5.138;2023-03-24T03:40:51;99976.69;;;8.96;92.04
77062;BME280;65989;51.686;5.138;2023-03-24T03:43:18;99986.75;;;8.89;92.01
77062;BME280;65989;51.686;5.138;2023-03-24T03:45:44;99992.78;;;8.84;91.88
77062;BME280;65989;51.686;5.138;2023-03-24T03:48:10;99993.84;;;8.78;91.62
77062;BME280;65989;51.686;5.138;2023-03-24T03:50:36;100000.19;;;8.72;91.69
77062;BME280;65989;51.686;5.138;2023-03-24T03:53:04;100004.13;;;8.74;91.92
77062;BME280;65989;51.686;5.138;2023-03-24T03:55:30;100004.94;;;8.75;91.69
77062;BME280;65989;51.686;5.138;2023-03-24T03:57:56;100007.03;;;8.78;91.83
77062;BME280;65989;51.686;5.138;2023-03-24T04:00:22;100014.72;;;8.85;91.92
77062;BME280;65989;51.686;5.138;2023-03-24T04:05:56;100016.56;;;8.84;91.74
77062;BME280;65989;51.686;5.138;2023-03-24T04:08:52;100036.66;;;8.85;91.63
77062;BME280;65989;51.686;5.138;2023-03-24T04:25:06;100057.81;;;8.90;91.34
77062;BME280;65989;51.686;5.138;2023-03-24T04:27:38;100074.97;;;8.82;91.44
77062;BME280;65989;51.686;5.138;2023-03-24T04:30:29;100067.28;;;8.76;91.21
77062;BME280;65989;51.686;5.138;2023-03-24T04:33:10;100067.00;;;8.72;91.05
77062;BME280;65989;51.686;5.138;2023-03-24T04:35:49;100068.84;;;8.66;90.86
77062;BME280;65989;51.686;5.138;2023-03-24T04:38:24;100065.38;;;8.56;90.86
77062;BME280;65989;51.686;5.138;2023-03-24T04:40:53;100067.72;;;8.52;90.66
77062;BME280;65989;51.686;5.138;2023-03-24T04:43:24;100071.34;;;8.46;90.64
77062;BME280;65989;51.686;5.138;2023-03-24T04:45:53;100073.22;;;8.45;90.69
77062;BME280;65989;51.686;5.138;2023-03-24T04:48:22;100079.25;;;8.35;90.70
77062;BME280;65989;51.686;5.138;2023-03-24T04:50:53;100072.34;;;8.29;90.55
77062;BME280;65989;51.686;5.138;2023-03-24T04:53:20;100084.47;;;8.25;90.59
77062;BME280;65989;51.686;5.138;2023-03-24T04:58:18;100078.09;;;8.21;90.44
77062;BME280;65989;51.686;5.138;2023-03-24T05:00:45;100085.97;;;8.16;90.44
77062;BME280;65989;51.686;5.138;2023-03-24T05:03:11;100087.03;;;8.10;90.66
77062;BME280;65989;51.686;5.138;2023-03-24T05:05:44;100092.50;;;8.03;90.67
77062;BME280;65989;51.686;5.138;2023-03-24T05:08:11;100097.28;;;8.06;90.54
77062;BME280;65989;51.686;5.138;2023-03-24T05:10:37;100093.59;;;8.07;90.59
77062;BME280;65989;51.686;5.138;2023-03-24T05:13:04;100093.09;;;8.10;90.59
77062;BME280;65989;51.686;5.138;2023-03-24T05:15:30;100108.44;;;8.18;90.64
77062;BME280;65989;51.686;5.138;2023-03-24T05:17:56;100103.94;;;8.19;90.57
77062;BME280;65989;51.686;5.138;2023-03-24T05:20:22;100106.38;;;8.26;90.49
77062;BME280;65989;51.686;5.138;2023-03-24T05:22:48;100109.03;;;8.26;90.28
77062;BME280;65989;51.686;5.138;2023-03-24T05:25:14;100112.94;;;8.23;90.24
77062;BME280;65989;51.686;5.138;2023-03-24T05:27:40;100123.22;;;8.19;90.41
77062;BME280;65989;51.686;5.138;2023-03-24T05:30:06;100115.31;;;8.19;90.04
77062;BME280;65989;51.686;5.138;2023-03-24T05:32:31;100119.53;;;8.20;90.01
77062;BME280;65989;51.686;5.138;2023-03-24T05:34:57;100125.59;;;8.21;90.13
77062;BME280;65989;51.686;5.138;2023-03-24T05:37:22;100123.75;;;8.16;90.05
77062;BME280;65989;51.686;5.138;2023-03-24T05:39:47;100128.22;;;8.16;90.05
77062;BME280;65989;51.686;5.138;2023-03-24T05:42:14;100129.81;;;8.17;89.99
77062;BME280;65989;51.686;5.138;2023-03-24T05:44:40;100131.16;;;8.19;90.06
77062;BME280;65989;51.686;5.138;2023-03-24T05:47:05;100130.06;;;8.15;89.96
77062;BME280;65989;51.686;5.138;2023-03-24T05:49:31;100126.88;;;8.13;89.71
77062;BME280;65989;51.686;5.138;2023-03-24T05:51:56;100136.94;;;8.16;89.95
77062;BME280;65989;51.686;5.138;2023-03-24T05:54:22;100141.44;;;8.21;89.68
77062;BME280;65989;51.686;5.138;2023-03-24T05:56:48;100140.69;;;8.26;89.78
77062;BME280;65989;51.686;5.138;2023-03-24T05:59:13;100144.66;;;8.28;89.62
77062;BME280;65989;51.686;5.138;2023-03-24T06:01:39;100148.63;;;8.31;89.71
77062;BME280;65989;51.686;5.138;2023-03-24T06:04:09;100145.25;;;8.35;89.75
77062;BME280;65989;51.686;5.138;2023-03-24T06:06:35;100144.75;;;8.44;89.34
77062;BME280;65989;51.686;5.138;2023-03-24T06:09:03;100150.88;;;8.49;89.22
77062;BME280;65989;51.686;5.138;2023-03-24T06:11:29;100161.50;;;8.65;89.15
77062;BME280;65989;51.686;5.138;2023-03-24T06:13:54;100154.97;;;8.78;88.90
77062;BME280;65989;51.686;5.138;2023-03-24T06:16:28;100158.16;;;8.80;88.89
77062;BME280;65989;51.686;5.138;2023-03-24T06:18:54;100159.75;;;8.81;88.55
77062;BME280;65989;51.686;5.138;2023-03-24T06:21:19;100162.09;;;8.72;88.54
77062;BME280;65989;51.686;5.138;2023-03-24T06:23:45;100164.19;;;8.70;88.39
77062;BME280;65989;51.686;5.138;2023-03-24T06:26:12;100163.91;;;8.66;88.20
77062;BME280;65989;51.686;5.138;2023-03-24T06:28:39;100163.13;;;8.71;88.07
77062;BME280;65989;51.686;5.138;2023-03-24T06:31:07;100166.06;;;8.80;87.91
77062;BME280;65989;51.686;5.138;2023-03-24T06:33:39;100168.78;;;8.90;87.67
77062;BME280;65989;51.686;5.138;2023-03-24T06:36:05;100172.25;;;9.01;87.80
77062;BME280;65989;51.686;5.138;2023-03-24T06:38:31;100170.97;;;9.09;87.40
77062;BME280;65989;51.686;5.138;2023-03-24T06:41:01;100177.31;;;9.18;87.18
77062;BME280;65989;51.686;5.138;2023-03-24T06:43:27;100174.44;;;9.20;87.09
77062;BME280;65989;51.686;5.138;2023-03-24T06:45:52;100186.38;;;9.33;86.77
77062;BME280;65989;51.686;5.138;2023-03-24T06:48:18;100199.88;;;9.41;86.73
77062;BME280;65989;51.686;5.138;2023-03-24T06:50:43;100193.53;;;9.48;86.30
77062;BME280;65989;51.686;5.138;2023-03-24T06:53:08;100194.63;;;9.57;86.23
77062;BME280;65989;51.686;5.138;2023-03-24T06:55:34;100202.56;;;9.67;85.96
77062;BME280;65989;51.686;5.138;2023-03-24T06:57:59;100196.75;;;9.70;85.60
77062;BME280;65989;51.686;5.138;2023-03-24T07:00:25;100201.50;;;9.79;85.50
77062;BME280;65989;51.686;5.138;2023-03-24T07:02:50;100194.13;;;9.86;85.35
77062;BME280;65989;51.686;5.138;2023-03-24T07:05:16;100211.31;;;9.99;84.83
77062;BME280;65989;51.686;5.138;2023-03-24T07:07:43;100207.63;;;10.05;84.78
77062;BME280;65989;51.686;5.138;2023-03-24T07:10:09;100204.16;;;10.05;84.56
77062;BME280;65989;51.686;5.138;2023-03-24T07:12:34;100206.81;;;10.05;84.41
77062;BME280;65989;51.686;5.138;2023-03-24T07:15:00;100212.41;;;10.08;84.12
77062;BME280;65989;51.686;5.138;2023-03-24T07:17:28;100222.16;;;10.08;83.88
77062;BME280;65989;51.686;5.138;2023-03-24T07:19:53;100228.28;;;10.08;83.83
77062;BME280;65989;51.686;5.138;2023-03-24T07:22:19;100220.84;;;10.21;83.74
77062;BME280;65989;51.686;5.138;2023-03-24T07:24:44;100231.44;;;10.36;83.68
77062;BME280;65989;51.686;5.138;2023-03-24T07:27:10;100235.91;;;10.61;83.22
77062;BME280;65989;51.686;5.138;2023-03-24T07:29:35;100239.84;;;10.85;82.57
77062;BME280;65989;51.686;5.138;2023-03-24T07:32:01;100233.72;;;10.95;82.23
77062;BME280;65989;51.686;5.138;2023-03-24T07:34:28;100221.78;;;11.02;82.01
77062;BME280;65989;51.686;5.138;2023-03-24T07:36:53;100234.75;;;11.04;81.68
77062;BME280;65989;51.686;5.138;2023-03-24T07:39:19;100243.25;;;11.01;81.42
77062;BME280;65989;51.686;5.138;2023-03-24T07:41:45;100250.44;;;10.90;81.21
77062;BME280;65989;51.686;5.138;2023-03-24T07:44:11;100255.47;;;10.92;81.57
77062;BME280;65989;51.686;5.138;2023-03-24T07:46:37;100246.44;;;10.98;80.84
77062;BME280;65989;51.686;5.138;2023-03-24T07:49:03;100246.16;;;11.04;80.45
77062;BME280;65989;51.686;5.138;2023-03-24T07:51:28;100251.94;;;11.12;80.21
77062;BME280;65989;51.686;5.138;2023-03-24T07:53:53;100257.97;;;11.28;80.16
77062;BME280;65989;51.686;5.138;2023-03-24T07:56:20;100254.78;;;11.36;79.95
77062;BME280;65989;51.686;5.138;2023-03-24T07:58:45;100257.41;;;11.41;79.19
77062;BME280;65989;51.686;5.138;2023-03-24T08:01:12;100258.13;;;11.52;78.50
77062;BME280;65989;51.686;5.138;2023-03-24T08:03:38;100254.13;;;11.60;78.07
77062;BME280;65989;51.686;5.138;2023-03-24T08:06:05;100260.97;;;11.71;77.74
77062;BME280;65989;51.686;5.138;2023-03-24T08:08:31;100262.84;;;11.71;77.73
77062;BME280;65989;51.686;5.138;2023-03-24T08:10:56;100262.16;;;11.89;77.50
77062;BME280;65989;51.686;5.138;2023-03-24T08:13:22;100265.38;;;11.86;77.32
77062;BME280;65989;51.686;5.138;2023-03-24T08:15:48;100253.69;;;11.87;77.30
77062;BME280;65989;51.686;5.138;2023-03-24T08:18:13;100256.03;;;11.94;76.90
77062;BME280;65989;51.686;5.138;2023-03-24T08:20:40;100271.34;;;12.13;76.16
77062;BME280;65989;51.686;5.138;2023-03-24T08:23:06;100263.16;;;12.38;76.19
77062;BME280;65989;51.686;5.138;2023-03-24T08:25:33;100269.50;;;12.43;75.54
77062;BME280;65989;51.686;5.138;2023-03-24T08:27:59;100270.59;;;12.36;75.06
77062;BME280;65989;51.686;5.138;2023-03-24T08:30:25;100272.16;;;12.43;74.91
77062;BME280;65989;51.686;5.138;2023-03-24T08:32:54;100277.38;;;12.53;74.64
77062;BME280;65989;51.686;5.138;2023-03-24T08:35:23;100282.50;;;12.74;74.50
77062;BME280;65989;51.686;5.138;2023-03-24T08:37:49;100287.78;;;12.79;73.93
77062;BME280;65989;51.686;5.138;2023-03-24T08:40:18;100284.94;;;12.70;73.39
77062;BME280;65989;51.686;5.138;2023-03-24T08:42:51;100287.91;;;12.63;73.65
77062;BME280;65989;51.686;5.138;2023-03-24T08:45:18;100285.81;;;12.60;73.71
77062;BME280;65989;51.686;5.138;2023-03-24T08:47:49;100302.22;;;12.67;73.44
77062;BME280;65989;51.686;5.138;2023-03-24T08:50:17;100298.31;;;12.89;73.72
77062;BME280;65989;51.686;5.138;2023-03-24T08:52:43;100299.72;;;13.06;73.21
77062;BME280;65989;51.686;5.138;2023-03-24T08:55:13;100306.84;;;12.86;73.03
77062;BME280;65989;51.686;5.138;2023-03-24T08:57:38;100307.69;;;12.81;73.16
77062;BME280;65989;51.686;5.138;2023-03-24T09:00:04;100316.75;;;12.75;72.93
77062;BME280;65989;51.686;5.138;2023-03-24T09:02:57;100318.44;;;12.95;73.24
77062;BME280;65989;51.686;5.138;2023-03-24T09:05:26;100325.63;;;12.95;73.02
77062;BME280;65989;51.686;5.138;2023-03-24T09:07:53;100325.84;;;12.98;72.77
77062;BME280;65989;51.686;5.138;2023-03-24T09:10:18;100326.66;;;12.99;73.09
77062;BME280;65989;51.686;5.138;2023-03-24T09:12:45;100325.13;;;12.93;72.60
77062;BME280;65989;51.686;5.138;2023-03-24T09:15:11;100327.34;;;12.80;72.50
77062;BME280;65989;51.686;5.138;2023-03-24T09:17:37;100341.63;;;12.60;72.58
77062;BME280;65989;51.686;5.138;2023-03-24T09:20:04;100342.63;;;12.35;73.13
77062;BME280;65989;51.686;5.138;2023-03-24T09:22:37;100343.28;;;12.16;73.53
77062;BME280;65989;51.686;5.138;2023-03-24T09:25:03;100340.38;;;12.13;74.09
77062;BME280;65989;51.686;5.138;2023-03-24T09:27:29;100335.84;;;12.13;74.68
77062;BME280;65989;51.686;5.138;2023-03-24T09:29:55;100341.13;;;12.18;74.75
77062;BME280;65989;51.686;5.138;2023-03-24T09:32:20;100335.00;;;12.23;74.89
77062;BME280;65989;51.686;5.138;2023-03-24T09:34:46;100335.56;;;12.54;74.95
77062;BME280;65989;51.686;5.138;2023-03-24T09:37:11;100340.13;;;12.78;74.28
77062;BME280;65989;51.686;5.138;2023-03-24T09:39:37;100335.81;;;12.88;74.00
77062;BME280;65989;51.686;5.138;2023-03-24T09:42:04;100342.13;;;13.21;73.35
77062;BME280;65989;51.686;5.138;2023-03-24T09:44:38;100333.38;;;13.45;72.75
77062;BME280;65989;51.686;5.138;2023-03-24T09:49:51;100330.69;;;13.69;71.40
77062;BME280;65989;51.686;5.138;2023-03-24T09:52:32;100338.56;;;13.74;70.41
77062;BME280;65989;51.686;5.138;2023-03-24T09:54:59;100349.06;;;13.66;70.38
77062;BME280;65989;51.686;5.138;2023-03-24T09:57:37;100354.34;;;13.47;71.30
77062;BME280;65989;51.686;5.138;2023-03-24T10:00:25;100366.13;;;13.16;71.76
77062;BME280;65989;51.686;5.138;2023-03-24T10:02:52;100364.59;;;13.10;72.07
77062;BME280;65989;51.686;5.138;2023-03-24T10:05:26;100370.69;;;13.35;72.81
77062;BME280;65989;51.686;5.138;2023-03-24T10:08:29;100371.81;;;13.58;72.58
77062;BME280;65989;51.686;5.138;2023-03-24T10:27:24;100380.13;;;12.97;76.92
77062;BME280;65989;51.686;5.138;2023-03-24T10:30:03;100371.88;;;12.99;76.71
77062;BME280;65989;51.686;5.138;2023-03-24T10:32:32;100375.59;;;12.98;76.95
77062;BME280;65989;51.686;5.138;2023-03-24T10:35:00;100376.94;;;12.95;77.34
77062;BME280;65989;51.686;5.138;2023-03-24T10:37:33;100384.38;;;12.69;77.78
77062;BME280;65989;51.686;5.138;2023-03-24T10:39:59;100375.72;;;12.53;78.32
77062;BME280;65989;51.686;5.138;2023-03-24T10:42:30;100383.44;;;12.49;78.41
77062;BME280;65989;51.686;5.138;2023-03-24T10:44:57;100369.97;;;12.35;78.75
77062;BME280;65989;51.686;5.138;2023-03-24T10:47:27;100379.03;;;12.34;79.23
77062;BME280;65989;51.686;5.138;2023-03-24T10:49:59;100372.06;;;12.44;79.64
77062;BME280;65989;51.686;5.138;2023-03-24T10:52:25;100376.75;;;12.57;79.83
77062;BME280;65989;51.686;5.138;2023-03-24T10:54:57;100374.50;;;12.69;80.08
77062;BME280;65989;51.686;5.138;2023-03-24T10:57:24;100372.38;;;12.72;79.77
77062;BME280;65989;51.686;5.138;2023-03-24T11:02:34;100359.03;;;12.77;80.01
77062;BME280;65989;51.686;5.138;2023-03-24T11:05:17;100355.63;;;12.71;80.11
77062;BME280;65989;51.686;5.138;2023-03-24T11:07:46;100355.56;;;12.76;80.01
77062;BME280;65989;51.686;5.138;2023-03-24T11:10:13;100360.03;;;12.86;79.74
77062;BME280;65989;51.686;5.138;2023-03-24T11:12:43;100364.44;;;12.66;79.56
77062;BME280;65989;51.686;5.138;2023-03-24T11:15:28;100376.66;;;12.33;79.70
77062;BME280;65989;51.686;5.138;2023-03-24T11:18:36;100375.97;;;12.12;79.13
77062;BME280;65989;51.686;5.138;2023-03-24T11:20:45;100383.19;;;12.06;79.53
77062;BME280;65989;51.686;5.138;2023-03-24T11:28:28;100381.72;;;12.29;79.80
77062;BME280;65989;51.686;5.138;2023-03-24T11:30:55;100379.19;;;12.48;79.75
77062;BME280;65989;51.686;5.138;2023-03-24T11:33:28;100383.41;;;12.89;80.01
77062;BME280;65989;51.686;5.138;2023-03-24T11:35:57;100381.44;;;13.00;79.19
77062;BME280;65989;51.686;5.138;2023-03-24T11:38:29;100387.66;;;12.90;78.65
77062;BME280;65989;51.686;5.138;2023-03-24T11:41:00;100395.56;;;12.66;78.47
77062;BME280;65989;51.686;5.138;2023-03-24T11:43:28;100391.97;;;12.46;79.08
77062;BME280;65989;51.686;5.138;2023-03-24T11:46:07;100406.69;;;12.28;79.67
77062;BME280;65989;51.686;5.138;2023-03-24T11:48:41;100406.81;;;12.07;79.69
77062;BME280;65989;51.686;5.138;2023-03-24T11:51:22;100405.78;;;11.93;79.83
77062;BME280;65989;51.686;5.138;2023-03-24T11:53:51;100405.22;;;11.96;80.29
77062;BME280;65989;51.686;5.138;2023-03-24T11:56:38;100388.50;;;12.06;80.56
77062;BME280;65989;51.686;5.138;2023-03-24T11:59:50;100382.91;;;12.07;80.77
77062;BME280;65989;51.686;5.138;2023-03-24T12:02:09;100385.00;;;12.10;81.32
77062;BME280;65989;51.686;5.138;2023-03-24T12:10:15;100372.91;;;12.39;82.12
77062;BME280;65989;51.686;5.138;2023-03-24T12:21:05;100358.34;;;12.66;81.89
77062;BME280;65989;51.686;5.138;2023-03-24T12:26:22;100354.66;;;12.62;81.76
77062;BME280;65989;51.686;5.138;2023-03-24T12:29:21;100352.13;;;12.76;81.65
77062;BME280;65989;51.686;5.138;2023-03-24T12:42:13;100334.81;;;13.32;78.95
77062;BME280;65989;51.686;5.138;2023-03-24T12:45:01;100339.91;;;13.28;78.70
77062;BME280;65989;51.686;5.138;2023-03-24T12:55:52;100360.94;;;12.36;78.84
77062;BME280;65989;51.686;5.138;2023-03-24T12:58:38;100361.97;;;12.01;80.46
77062;BME280;65989;51.686;5.138;2023-03-24T13:04:20;100372.97;;;11.68;81.73
77062;BME280;65989;51.686;5.138;2023-03-24T13:06:57;100387.06;;;11.58;82.04
77062;BME280;65989;51.686;5.138;2023-03-24T13:12:18;100365.69;;;11.24;82.69
77062;BME280;65989;51.686;5.138;2023-03-24T13:18:01;100382.44;;;10.93;82.86
77062;BME280;65989;51.686;5.138;2023-03-24T13:20:35;100387.47;;;11.00;83.18
77062;BME280;65989;51.686;5.138;2023-03-24T13:26:43;100356.63;;;11.40;83.39
77062;BME280;65989;51.686;5.138;2023-03-24T13:37:25;100360.88;;;11.41;83.74
77062;BME280;65989;51.686;5.138;2023-03-24T13:39:57;100361.94;;;11.35;83.40
77062;BME280;65989;51.686;5.138;2023-03-24T13:42:32;100367.00;;;11.26;83.42
77062;BME280;65989;51.686;5.138;2023-03-24T13:45:00;100372.84;;;11.13;83.64
77062;BME280;65989;51.686;5.138;2023-03-24T13:48:49;100379.25;;;11.07;84.01
77062;BME280;65989;51.686;5.138;2023-03-24T13:50:54;100408.94;;;10.88;83.92
77062;BME280;65989;51.686;5.138;2023-03-24T13:53:32;100406.28;;;10.62;84.00
77062;BME280;65989;51.686;5.138;2023-03-24T13:56:01;100404.94;;;10.44;84.27
77062;BME280;65989;51.686;5.138;2023-03-24T13:58:47;100408.34;;;10.34;84.52
77062;BME280;65989;51.686;5.138;2023-03-24T14:01:29;100390.03;;;10.27;84.79
77062;BME280;65989;51.686;5.138;2023-03-24T14:06:56;100347.41;;;11.12;85.53
77062;BME280;65989;51.686;5.138;2023-03-24T14:09:27;100347.88;;;11.40;85.24
77062;BME280;65989;51.686;5.138;2023-03-24T14:14:22;100327.22;;;11.31;84.70
77062;BME280;65989;51.686;5.138;2023-03-24T14:19:29;100332.31;;;11.07;84.99
77062;BME280;65989;51.686;5.138;2023-03-24T14:22:15;100333.66;;;10.99;84.97
77062;BME280;65989;51.686;5.138;2023-03-24T14:25:04;100326.25;;;10.96;85.25
77062;BME280;65989;51.686;5.138;2023-03-24T14:27:41;100344.25;;;10.94;85.23
77062;BME280;65989;51.686;5.138;2023-03-24T14:32:42;100334.72;;;10.83;85.15
77062;BME280;65989;51.686;5.138;2023-03-24T14:38:23;100338.72;;;10.80;85.53
77062;BME280;65989;51.686;5.138;2023-03-24T14:40:56;100337.66;;;10.86;85.88
77062;BME280;65989;51.686;5.138;2023-03-24T14:43:51;100332.88;;;10.78;85.90
77062;BME280;65989;51.686;5.138;2023-03-24T14:49:01;100337.13;;;10.79;86.09
77062;BME280;65989;51.686;5.138;2023-03-24T14:54:06;100339.75;;;10.95;86.24
77062;BME280;65989;51.686;5.138;2023-03-24T14:56:38;100337.91;;;10.90;85.96
77062;BME280;65989;51.686;5.138;2023-03-24T15:00:00;100337.66;;;10.86;85.93
77062;BME280;65989;51.686;5.138;2023-03-24T15:02:26;100333.41;;;10.80;86.04
77062;BME280;65989;51.686;5.138;2023-03-24T15:05:30;100329.72;;;10.76;86.03
77062;BME280;65989;51.686;5.138;2023-03-24T15:10:24;100324.38;;;11.02;85.77
77062;BME280;65989;51.686;5.138;2023-03-24T15:12:50;100329.13;;;11.15;85.81
77062;BME280;65989;51.686;5.138;2023-03-24T15:15:17;100322.69;;;11.27;85.42
77062;BME280;65989;51.686;5.138;2023-03-24T15:17:44;100328.53;;;11.29;85.24
77062;BME280;65989;51.686;5.138;2023-03-24T15:20:32;100328.00;;;11.27;85.26
77062;BME280;65989;51.686;5.138;2023-03-24T15:23:07;100324.59;;;11.21;85.18
77062;BME280;65989;51.686;5.138;2023-03-24T15:25:40;100331.47;;;11.17;85.45
77062;BME280;65989;51.686;5.138;2023-03-24T15:28:23;100330.72;;;11.16;85.34
77062;BME280;65989;51.686;5.138;2023-03-24T15:30:49;100305.50;;;11.19;85.58
77062;BME280;65989;51.686;5.138;2023-03-24T15:33:15;100312.88;;;11.38;85.96
77062;BME280;65989;51.686;5.138;2023-03-24T15:35:42;100302.25;;;11.38;86.01
77062;BME280;65989;51.686;5.138;2023-03-24T15:38:17;100299.88;;;11.36;86.00
77062;BME280;65989;51.686;5.138;2023-03-24T15:41:12;100303.06;;;11.28;86.28
77062;BME280;65989;51.686;5.138;2023-03-24T15:43:46;100307.34;;;11.24;86.57
77062;BME280;65989;51.686;5.138;2023-03-24T15:46:28;100302.06;;;11.18;86.72
77062;BME280;65989;51.686;5.138;2023-03-24T15:48:55;100296.47;;;11.20;87.02
77062;BME280;65989;51.686;5.138;2023-03-24T15:52:23;100290.94;;;11.11;87.11
77062;BME280;65989;51.686;5.138;2023-03-24T15:54:40;100287.78;;;10.99;87.05